Time;durP1;ratioP1;P1;durP2;ratioP2;P2;SDS_P1;SDS_P2;PMS_P1;PMS_P2;Temp;Humidity;BMP_temperature;BMP_pressure;BME280_temperature;BME280_humidity;BME280_pressure;Samples;Min_cycle;Max_cycle;Signal;HPM_P1;HPM_P2
2023/06/22 00:00:42;;;;;;;10.88;7.15;;;;;;;;;;5051413;28;20032;-77
2023/06/22 00:03:07;;;;;;;11.48;8.05;;;;;;;;;;5045074;28;20033;-77
2023/06/22 00:05:33;;;;;;;12.05;8.18;;;;;;;;;;5050507;28;20438;-77
2023/06/22 00:08:02;;;;;;;10.65;7.35;;;;;;;;;;5051746;28;20029;-77
2023/06/22 00:10:27;;;;;;;13.98;8.02;;;;;;;;;;5051221;28;20044;-77
2023/06/22 00:12:52;;;;;;;12.82;8.18;;;;;;;;;;5050231;28;20448;-77
2023/06/22 00:15:18;;;;;;;10.38;7.35;;;;;;;;;;5030639;28;20022;-78
2023/06/22 00:17:43;;;;;;;14.13;7.80;;;;;;;;;;5050463;28;20519;-76
2023/06/22 00:20:10;;;;;;;16.67;9.90;;;;;;;;;;5051358;28;20047;-76
2023/06/22 00:22:38;;;;;;;13.13;9.10;;;;;;;;;;5051124;28;20037;-76
2023/06/22 00:25:05;;;;;;;10.80;8.05;;;;;;;;;;5050252;28;20507;-77
2023/06/22 00:27:31;;;;;;;10.15;7.50;;;;;;;;;;5051702;28;20031;-78
2023/06/22 00:29:56;;;;;;;10.48;7.32;;;;;;;;;;5050997;28;20104;-78
2023/06/22 00:32:22;;;;;;;11.65;8.57;;;;;;;;;;5052331;28;20025;-77
2023/06/22 00:34:47;;;;;;;13.68;7.80;;;;;;;;;;5034739;28;20167;-78
2023/06/22 00:37:13;;;;;;;11.80;7.75;;;;;;;;;;5051728;28;20071;-76
2023/06/22 00:39:42;;;;;;;11.25;7.88;;;;;;;;;;5038385;28;20061;-77
2023/06/22 00:42:08;;;;;;;10.77;8.02;;;;;;;;;;5059189;28;20472;-76
2023/06/22 00:44:33;;;;;;;10.82;7.93;;;;;;;;;;5034157;28;20032;-77
2023/06/22 00:47:00;;;;;;;11.20;8.13;;;;;;;;;;5031976;28;20025;-77
2023/06/22 00:49:26;;;;;;;11.30;8.15;;;;;;;;;;5014224;28;20021;-78
2023/06/22 00:51:52;;;;;;;11.15;8.07;;;;;;;;;;5031429;28;20040;-76
2023/06/22 00:54:24;;;;;;;10.52;7.90;;;;;;;;;;5030985;28;20033;-76
2023/06/22 00:56:52;;;;;;;11.27;8.00;;;;;;;;;;5014413;28;20033;-76
2023/06/22 00:59:18;;;;;;;10.88;7.80;;;;;;;;;;5036655;28;20053;-76
2023/06/22 01:01:44;;;;;;;11.05;7.60;;;;;;;;;;5054470;28;20083;-76
2023/06/22 01:04:11;;;;;;;11.20;8.45;;;;;;;;;;5055331;28;20128;-76
2023/06/22 01:06:45;;;;;;;12.13;7.82;;;;;;;;;;5053411;28;20029;-78
2023/06/22 01:09:19;;;;;;;10.63;7.65;;;;;;;;;;5055415;28;20032;-76
2023/06/22 01:11:46;;;;;;;9.95;7.40;;;;;;;;;;5055224;28;20100;-77
2023/06/22 01:14:16;;;;;;;14.60;7.90;;;;;;;;;;5054213;28;20515;-76
2023/06/22 01:16:43;;;;;;;10.30;7.30;;;;;;;;;;5061121;28;20078;-75
2023/06/22 01:19:41;;;;;;;10.93;8.02;;;;;;;;;;5063111;28;20538;-75
2023/06/22 01:22:12;;;;;;;10.48;7.45;;;;;;;;;;5021113;28;20057;-77
2023/06/22 01:24:44;;;;;;;10.57;7.20;;;;;;;;;;5052561;28;20116;-76
2023/06/22 01:27:21;;;;;;;10.10;7.57;;;;;;;;;;5054026;28;20029;-77
2023/06/22 01:29:49;;;;;;;12.15;7.68;;;;;;;;;;5053895;28;20035;-76
2023/06/22 01:32:15;;;;;;;13.35;8.27;;;;;;;;;;5053544;28;20035;-75
2023/06/22 01:34:41;;;;;;;11.13;7.47;;;;;;;;;;5037130;28;20116;-77
2023/06/22 01:37:07;;;;;;;11.38;8.02;;;;;;;;;;5070178;28;20037;-76
2023/06/22 01:39:33;;;;;;;10.50;8.00;;;;;;;;;;5053294;28;20573;-74
2023/06/22 01:41:59;;;;;;;12.50;8.13;;;;;;;;;;5049073;28;20443;-77
2023/06/22 01:44:25;;;;;;;11.95;7.90;;;;;;;;;;5054334;28;20025;-76
2023/06/22 01:46:52;;;;;;;12.23;8.25;;;;;;;;;;5036876;28;20039;-78
2023/06/22 01:49:17;;;;;;;12.20;8.80;;;;;;;;;;5054483;28;20104;-76
2023/06/22 01:51:43;;;;;;;11.52;9.20;;;;;;;;;;5053076;28;20108;-77
2023/06/22 01:54:09;;;;;;;12.00;8.02;;;;;;;;;;5055160;28;20028;-76
2023/06/22 01:56:34;;;;;;;10.98;8.63;;;;;;;;;;5053439;28;20452;-75
2023/06/22 01:59:11;;;;;;;12.52;8.35;;;;;;;;;;5045920;28;20025;-74
2023/06/22 02:01:45;;;;;;;12.55;8.05;;;;;;;;;;5069915;28;20083;-76
2023/06/22 02:04:20;;;;;;;11.20;8.48;;;;;;;;;;5054504;28;20033;-76
2023/06/22 02:06:46;;;;;;;12.98;8.52;;;;;;;;;;5054674;28;20029;-76
2023/06/22 02:09:13;;;;;;;13.35;9.13;;;;;;;;;;5053172;28;20029;-76
2023/06/22 02:11:41;;;;;;;13.50;8.53;;;;;;;;;;5052740;28;20089;-77
2023/06/22 02:14:07;;;;;;;15.30;8.55;;;;;;;;;;5034267;28;20454;-77
2023/06/22 02:16:33;;;;;;;12.65;8.68;;;;;;;;;;5035864;28;20041;-77
2023/06/22 02:19:02;;;;;;;12.40;8.23;;;;;;;;;;5054263;28;20025;-77
2023/06/22 02:21:28;;;;;;;10.80;8.30;;;;;;;;;;5053788;28;20492;-77
2023/06/22 02:23:54;;;;;;;12.45;8.52;;;;;;;;;;5069401;28;20035;-77
2023/06/22 02:26:20;;;;;;;11.90;8.27;;;;;;;;;;5036008;28;20040;-77
2023/06/22 02:28:45;;;;;;;12.05;8.95;;;;;;;;;;5052490;28;20032;-77
2023/06/22 02:31:11;;;;;;;13.68;8.38;;;;;;;;;;5051236;28;20083;-78
2023/06/22 02:33:36;;;;;;;12.32;8.48;;;;;;;;;;5051395;28;20453;-77
2023/06/22 02:36:05;;;;;;;12.07;8.80;;;;;;;;;;5052284;28;20488;-77
2023/06/22 02:38:34;;;;;;;11.65;8.95;;;;;;;;;;5053550;28;20032;-76
2023/06/22 02:40:59;;;;;;;13.57;9.20;;;;;;;;;;5068404;28;20033;-75
2023/06/22 02:43:25;;;;;;;11.90;8.80;;;;;;;;;;5051761;28;20496;-76
2023/06/22 02:45:50;;;;;;;16.92;11.48;;;;;;;;;;5035496;28;20060;-76
2023/06/22 02:48:16;;;;;;;13.55;9.63;;;;;;;;;;5048175;28;20025;-77
2023/06/22 02:50:41;;;;;;;12.38;7.93;;;;;;;;;;5051035;28;20025;-77
2023/06/22 02:53:07;;;;;;;13.13;9.45;;;;;;;;;;5035558;28;20033;-77
2023/06/22 02:55:36;;;;;;;26.17;18.25;;;;;;;;;;5068687;28;20591;-75
2023/06/22 02:58:04;;;;;;;17.15;12.25;;;;;;;;;;5052064;28;20029;-76
2023/06/22 03:00:32;;;;;;;23.80;15.23;;;;;;;;;;5051771;28;20037;-78
2023/06/22 03:02:58;;;;;;;19.55;9.98;;;;;;;;;;5035529;28;20127;-76
2023/06/22 03:05:23;;;;;;;14.73;8.50;;;;;;;;;;5050004;28;20029;-77
2023/06/22 03:07:49;;;;;;;15.02;8.65;;;;;;;;;;5051807;28;20033;-76
2023/06/22 03:10:15;;;;;;;13.55;8.73;;;;;;;;;;5051956;28;20029;-77
2023/06/22 03:12:42;;;;;;;13.18;9.35;;;;;;;;;;5052234;28;20028;-76
2023/06/22 03:15:08;;;;;;;16.50;10.07;;;;;;;;;;5070024;28;20029;-76
2023/06/22 03:17:35;;;;;;;14.95;9.82;;;;;;;;;;5057864;28;20032;-77
2023/06/22 03:20:01;;;;;;;10.48;8.35;;;;;;;;;;5055657;28;20025;-77
2023/06/22 03:22:26;;;;;;;12.05;8.93;;;;;;;;;;5053452;28;20029;-77
2023/06/22 03:24:52;;;;;;;13.13;9.40;;;;;;;;;;5056366;28;20021;-77
2023/06/22 03:27:18;;;;;;;17.45;8.95;;;;;;;;;;5057960;28;20028;-76
2023/06/22 03:29:44;;;;;;;18.67;11.27;;;;;;;;;;5053240;28;20033;-77
2023/06/22 03:32:10;;;;;;;11.93;8.85;;;;;;;;;;5035662;28;20032;-76
2023/06/22 03:34:36;;;;;;;14.00;9.27;;;;;;;;;;5052421;28;20060;-75
2023/06/22 03:37:01;;;;;;;14.15;9.00;;;;;;;;;;5051594;28;20072;-75
2023/06/22 03:39:27;;;;;;;14.95;9.63;;;;;;;;;;5046168;28;20025;-76
2023/06/22 03:41:52;;;;;;;13.98;9.27;;;;;;;;;;5030921;28;20095;-77
2023/06/22 03:44:18;;;;;;;13.27;9.35;;;;;;;;;;5031203;28;20396;-76
2023/06/22 03:46:43;;;;;;;15.65;9.63;;;;;;;;;;5031112;28;20097;-75
2023/06/22 03:49:09;;;;;;;15.07;10.43;;;;;;;;;;5031042;28;20025;-76
2023/06/22 03:51:34;;;;;;;18.52;10.85;;;;;;;;;;5031749;28;20456;-74
2023/06/22 03:54:00;;;;;;;18.80;9.95;;;;;;;;;;5030932;28;20029;-75
2023/06/22 03:56:25;;;;;;;19.05;10.40;;;;;;;;;;5049081;28;20427;-77
2023/06/22 03:58:51;;;;;;;17.10;10.75;;;;;;;;;;5034308;28;20434;-77
2023/06/22 04:01:17;;;;;;;14.48;9.43;;;;;;;;;;5051500;28;20029;-75
2023/06/22 04:03:42;;;;;;;17.60;9.82;;;;;;;;;;5051749;28;20404;-76
2023/06/22 04:06:08;;;;;;;16.00;9.98;;;;;;;;;;5050974;28;20029;-77
2023/06/22 04:08:34;;;;;;;19.85;11.15;;;;;;;;;;5050732;28;20481;-77
2023/06/22 04:10:59;;;;;;;20.42;10.52;;;;;;;;;;5050430;28;20484;-75
2023/06/22 04:13:25;;;;;;;17.55;10.63;;;;;;;;;;5048867;28;20399;-75
2023/06/22 04:15:50;;;;;;;18.33;10.48;;;;;;;;;;5050389;28;20076;-77
2023/06/22 04:18:16;;;;;;;16.60;11.02;;;;;;;;;;5051737;28;20429;-77
2023/06/22 04:20:41;;;;;;;16.00;10.95;;;;;;;;;;5051389;28;20021;-77
2023/06/22 04:23:07;;;;;;;17.45;10.45;;;;;;;;;;5050244;28;20063;-76
2023/06/22 04:25:32;;;;;;;15.70;10.07;;;;;;;;;;5050412;28;20071;-76
2023/06/22 04:27:58;;;;;;;15.50;11.57;;;;;;;;;;5051443;28;20032;-76
2023/06/22 04:30:23;;;;;;;16.13;11.10;;;;;;;;;;5065711;28;20031;-76
2023/06/22 04:32:56;;;;;;;15.68;10.77;;;;;;;;;;5048261;28;20114;-77
2023/06/22 04:35:22;;;;;;;14.90;10.82;;;;;;;;;;5054530;28;20035;-77
2023/06/22 04:37:49;;;;;;;20.08;11.45;;;;;;;;;;5054469;28;20123;-77
2023/06/22 04:40:15;;;;;;;16.25;10.93;;;;;;;;;;5055379;28;20033;-77
2023/06/22 04:42:40;;;;;;;20.83;11.93;;;;;;;;;;5055243;28;20112;-77
2023/06/22 04:45:06;;;;;;;17.33;11.55;;;;;;;;;;5055539;28;20408;-75
2023/06/22 04:47:31;;;;;;;16.55;11.10;;;;;;;;;;5050274;28;20079;-77
2023/06/22 04:49:57;;;;;;;18.73;11.45;;;;;;;;;;5054213;28;20483;-77
2023/06/22 04:52:24;;;;;;;21.42;11.75;;;;;;;;;;5070354;28;20555;-77
2023/06/22 04:54:55;;;;;;;18.95;11.60;;;;;;;;;;5073245;22;20297;-80
2023/06/22 04:57:21;;;;;;;18.42;11.43;;;;;;;;;;5040937;28;20130;-81
2023/06/22 04:59:46;;;;;;;20.10;13.27;;;;;;;;;;5043003;28;20021;-81
2023/06/22 05:02:12;;;;;;;19.50;12.38;;;;;;;;;;5039403;28;20049;-81
2023/06/22 05:04:40;;;;;;;18.48;12.20;;;;;;;;;;5030232;28;20430;-80
2023/06/22 05:07:06;;;;;;;21.13;13.07;;;;;;;;;;5018901;28;20480;-80
2023/06/22 05:09:33;;;;;;;17.50;13.05;;;;;;;;;;5035152;28;20096;-80
2023/06/22 05:12:01;;;;;;;20.20;11.57;;;;;;;;;;5035526;28;20033;-79
2023/06/22 05:14:27;;;;;;;22.13;12.95;;;;;;;;;;5034834;28;20034;-80
2023/06/22 05:16:53;;;;;;;17.50;12.68;;;;;;;;;;5018066;28;20496;-79
2023/06/22 05:19:18;;;;;;;17.27;12.90;;;;;;;;;;5035455;28;20057;-80
2023/06/22 05:21:44;;;;;;;18.60;11.48;;;;;;;;;;5033750;28;20484;-78
2023/06/22 05:24:09;;;;;;;17.45;10.95;;;;;;;;;;5035203;28;20033;-78
2023/06/22 05:26:35;;;;;;;18.23;11.48;;;;;;;;;;5034773;28;20029;-77
2023/06/22 05:29:01;;;;;;;19.60;11.70;;;;;;;;;;5034940;28;20385;-78
2023/06/22 05:31:26;;;;;;;18.30;11.95;;;;;;;;;;5027373;28;20052;-79
2023/06/22 05:33:53;;;;;;;18.85;11.63;;;;;;;;;;5041972;28;20029;-78
2023/06/22 05:36:25;;;;;;;23.30;11.98;;;;;;;;;;5025611;28;20033;-77
2023/06/22 05:38:51;;;;;;;21.25;12.32;;;;;;;;;;5039981;28;20044;-77
2023/06/22 05:41:17;;;;;;;16.67;11.32;;;;;;;;;;5037145;28;20036;-79
2023/06/22 05:43:42;;;;;;;17.35;11.35;;;;;;;;;;5037946;28;20029;-79
2023/06/22 05:46:08;;;;;;;18.27;10.88;;;;;;;;;;5039401;28;20546;-78
2023/06/22 05:48:33;;;;;;;20.83;11.25;;;;;;;;;;5036780;28;20022;-79
2023/06/22 05:50:59;;;;;;;17.83;11.23;;;;;;;;;;5036593;28;20025;-78
2023/06/22 05:53:24;;;;;;;17.98;12.88;;;;;;;;;;5039217;28;20121;-78
2023/06/22 05:55:50;;;;;;;18.67;11.05;;;;;;;;;;5039981;28;20076;-78
2023/06/22 05:58:15;;;;;;;22.45;11.35;;;;;;;;;;5040455;28;20025;-79
2023/06/22 06:00:41;;;;;;;22.02;11.95;;;;;;;;;;5041751;28;20064;-78
2023/06/22 06:03:08;;;;;;;19.63;11.15;;;;;;;;;;5041318;28;20033;-79
2023/06/22 06:05:34;;;;;;;20.20;10.25;;;;;;;;;;5036193;28;20032;-78
2023/06/22 06:08:04;;;;;;;16.83;10.90;;;;;;;;;;5033881;28;20025;-77
2023/06/22 06:10:30;;;;;;;16.98;10.73;;;;;;;;;;5002300;28;20026;-81
2023/06/22 06:12:56;;;;;;;19.20;10.73;;;;;;;;;;5016895;28;20029;-79
2023/06/22 06:15:21;;;;;;;16.05;10.23;;;;;;;;;;5033156;28;20028;-79
2023/06/22 06:17:47;;;;;;;15.55;9.98;;;;;;;;;;5033263;28;20030;-78
2023/06/22 06:20:13;;;;;;;17.73;10.00;;;;;;;;;;5033957;28;20124;-79
2023/06/22 06:22:39;;;;;;;16.75;9.77;;;;;;;;;;5000188;28;20041;-79
2023/06/22 06:25:05;;;;;;;13.35;9.40;;;;;;;;;;5032854;28;20029;-78
2023/06/22 06:27:30;;;;;;;15.38;9.25;;;;;;;;;;5032846;28;20025;-78
2023/06/22 06:29:56;;;;;;;15.38;9.23;;;;;;;;;;5034082;28;20440;-79
2023/06/22 06:32:22;;;;;;;14.38;8.75;;;;;;;;;;5016200;28;20056;-80
2023/06/22 06:34:47;;;;;;;11.45;7.95;;;;;;;;;;5032744;28;20484;-79
2023/06/22 06:37:13;;;;;;;13.35;7.85;;;;;;;;;;5016322;28;20025;-78
2023/06/22 06:39:38;;;;;;;13.50;8.48;;;;;;;;;;5033702;28;20025;-78
2023/06/22 06:42:04;;;;;;;16.83;9.05;;;;;;;;;;5033317;28;20033;-79
2023/06/22 06:44:30;;;;;;;14.48;8.25;;;;;;;;;;5033380;28;20046;-80
2023/06/22 06:46:55;;;;;;;12.38;8.73;;;;;;;;;;5033314;28;20139;-78
2023/06/22 06:49:21;;;;;;;10.90;7.65;;;;;;;;;;5016373;28;20033;-79
2023/06/22 06:51:46;;;;;;;12.57;7.47;;;;;;;;;;5015689;28;20040;-80
2023/06/22 06:54:12;;;;;;;14.23;7.75;;;;;;;;;;5032285;28;20084;-78
2023/06/22 06:56:38;;;;;;;11.65;8.43;;;;;;;;;;5032983;28;20037;-79
2023/06/22 06:59:03;;;;;;;12.85;7.95;;;;;;;;;;5016306;28;20033;-78
2023/06/22 07:01:33;;;;;;;12.65;8.73;;;;;;;;;;5032467;28;20107;-77
2023/06/22 07:03:59;;;;;;;10.90;8.02;;;;;;;;;;5033913;28;20075;-78
2023/06/22 07:06:28;;;;;;;14.38;8.55;;;;;;;;;;5033465;28;20431;-79
2023/06/22 07:08:55;;;;;;;12.52;7.32;;;;;;;;;;5016252;28;20064;-79
2023/06/22 07:11:20;;;;;;;11.20;7.78;;;;;;;;;;5033304;28;20499;-78
2023/06/22 07:13:46;;;;;;;10.63;6.78;;;;;;;;;;5031812;28;20029;-78
2023/06/22 07:16:11;;;;;;;10.50;6.95;;;;;;;;;;5033893;28;20033;-78
2023/06/22 07:18:39;;;;;;;10.60;7.20;;;;;;;;;;5032082;28;20041;-77
2023/06/22 07:21:06;;;;;;;10.23;6.90;;;;;;;;;;5032898;28;20401;-78
2023/06/22 07:23:32;;;;;;;12.07;7.53;;;;;;;;;;5033227;28;20044;-77
2023/06/22 07:25:57;;;;;;;15.63;7.70;;;;;;;;;;5032732;28;20021;-78
2023/06/22 07:28:23;;;;;;;14.70;8.07;;;;;;;;;;5031689;28;20029;-79
2023/06/22 07:30:50;;;;;;;10.63;7.00;;;;;;;;;;5031963;28;20092;-79
2023/06/22 07:33:17;;;;;;;11.65;7.45;;;;;;;;;;5031606;28;20037;-79
2023/06/22 07:35:42;;;;;;;10.82;7.28;;;;;;;;;;5031789;28;20036;-79
2023/06/22 07:38:09;;;;;;;12.68;7.53;;;;;;;;;;5033071;28;20029;-77
2023/06/22 07:40:35;;;;;;;10.35;7.55;;;;;;;;;;5032968;28;20033;-78
2023/06/22 07:43:00;;;;;;;14.60;7.65;;;;;;;;;;5032392;28;20095;-77
2023/06/22 07:45:26;;;;;;;13.20;7.63;;;;;;;;;;5032574;28;20104;-79
2023/06/22 07:47:51;;;;;;;9.88;7.25;;;;;;;;;;5031464;28;20033;-78
2023/06/22 07:50:17;;;;;;;10.90;7.28;;;;;;;;;;5031400;28;20110;-78
2023/06/22 07:52:42;;;;;;;14.00;7.82;;;;;;;;;;5031944;28;20616;-77
2023/06/22 07:55:08;;;;;;;10.75;7.40;;;;;;;;;;5033004;28;20049;-78
2023/06/22 07:57:34;;;;;;;14.30;7.70;;;;;;;;;;5031199;28;20030;-79
2023/06/22 08:00:00;;;;;;;9.38;7.32;;;;;;;;;;5032181;28;20033;-79
2023/06/22 08:02:26;;;;;;;15.02;8.35;;;;;;;;;;4998304;28;20393;-78
2023/06/22 08:04:51;;;;;;;11.43;7.57;;;;;;;;;;5014610;28;20079;-79
2023/06/22 08:07:19;;;;;;;13.48;7.40;;;;;;;;;;5030338;28;20060;-77
2023/06/22 08:09:48;;;;;;;11.35;7.45;;;;;;;;;;5031544;28;20021;-79
2023/06/22 08:12:14;;;;;;;14.20;7.88;;;;;;;;;;5030535;28;20591;-78
2023/06/22 08:14:42;;;;;;;13.23;7.90;;;;;;;;;;5032545;28;20029;-78
2023/06/22 08:17:07;;;;;;;11.67;7.83;;;;;;;;;;5032698;28;20097;-78
2023/06/22 08:19:33;;;;;;;15.50;7.45;;;;;;;;;;5031195;28;20081;-79
2023/06/22 08:21:58;;;;;;;10.23;7.13;;;;;;;;;;5015582;28;20033;-79
2023/06/22 08:24:24;;;;;;;9.95;7.60;;;;;;;;;;5033186;28;20029;-79
2023/06/22 08:26:51;;;;;;;12.10;7.25;;;;;;;;;;5031968;28;20096;-78
2023/06/22 08:29:16;;;;;;;12.18;7.50;;;;;;;;;;5034530;28;20070;-79
2023/06/22 08:31:42;;;;;;;14.20;7.57;;;;;;;;;;5036246;28;20029;-77
2023/06/22 08:34:08;;;;;;;13.15;7.55;;;;;;;;;;5045167;28;20037;-79
2023/06/22 08:36:41;;;;;;;10.73;6.75;;;;;;;;;;5040637;28;20034;-79
2023/06/22 08:39:08;;;;;;;9.43;7.15;;;;;;;;;;5041729;28;20075;-80
2023/06/22 08:41:33;;;;;;;10.55;7.13;;;;;;;;;;5038276;28;20067;-79
2023/06/22 08:43:59;;;;;;;12.02;7.20;;;;;;;;;;5042466;28;20416;-79
2023/06/22 08:46:30;;;;;;;13.60;7.70;;;;;;;;;;5034680;28;20358;-79
2023/06/22 08:48:57;;;;;;;12.43;6.57;;;;;;;;;;5033662;28;20359;-79
2023/06/22 08:51:23;;;;;;;10.23;7.27;;;;;;;;;;5032690;28;20048;-79
2023/06/22 08:53:48;;;;;;;10.73;6.97;;;;;;;;;;5031382;28;20496;-79
2023/06/22 08:56:14;;;;;;;11.52;6.95;;;;;;;;;;5031404;28;20081;-79
2023/06/22 08:58:39;;;;;;;8.25;6.43;;;;;;;;;;5031745;28;20029;-79
2023/06/22 09:01:05;;;;;;;8.93;6.63;;;;;;;;;;5034054;28;20558;-80
2023/06/22 09:03:32;;;;;;;10.60;6.65;;;;;;;;;;5032499;28;20152;-80
2023/06/22 09:05:58;;;;;;;8.25;6.15;;;;;;;;;;5033179;28;20030;-78
2023/06/22 09:08:23;;;;;;;9.63;6.90;;;;;;;;;;5032829;28;20025;-79
2023/06/22 09:10:52;;;;;;;8.35;5.85;;;;;;;;;;5032634;28;20029;-78
2023/06/22 09:13:18;;;;;;;11.20;6.68;;;;;;;;;;5031604;28;20417;-80
2023/06/22 09:15:43;;;;;;;8.52;6.72;;;;;;;;;;5015242;28;20037;-78
2023/06/22 09:18:12;;;;;;;10.60;6.15;;;;;;;;;;5031122;28;20033;-79
2023/06/22 09:20:38;;;;;;;10.48;6.50;;;;;;;;;;5036410;28;20512;-77
2023/06/22 09:23:04;;;;;;;9.75;6.82;;;;;;;;;;5034717;28;20026;-79
2023/06/22 09:25:29;;;;;;;8.45;5.95;;;;;;;;;;5018347;28;20025;-77
2023/06/22 09:27:55;;;;;;;11.70;6.13;;;;;;;;;;5035926;28;20025;-80
2023/06/22 09:30:21;;;;;;;7.93;5.68;;;;;;;;;;5036112;28;20481;-76
2023/06/22 09:32:47;;;;;;;10.77;5.95;;;;;;;;;;5034461;28;20018;-76
2023/06/22 09:35:13;;;;;;;7.68;5.47;;;;;;;;;;5035556;28;20076;-78
2023/06/22 09:37:39;;;;;;;6.95;5.35;;;;;;;;;;5034052;28;20037;-79
2023/06/22 09:40:10;;;;;;;11.18;5.68;;;;;;;;;;5034063;28;20104;-79
2023/06/22 09:42:35;;;;;;;8.55;5.25;;;;;;;;;;5017906;28;20540;-77
2023/06/22 09:45:01;;;;;;;8.95;5.35;;;;;;;;;;5035207;28;20120;-78
2023/06/22 09:47:27;;;;;;;6.30;5.43;;;;;;;;;;5033870;28;20026;-79
2023/06/22 09:49:55;;;;;;;8.93;5.57;;;;;;;;;;5018336;28;20064;-78
2023/06/22 09:52:21;;;;;;;7.13;5.30;;;;;;;;;;5039065;28;20109;-78
2023/06/22 09:54:46;;;;;;;8.40;4.97;;;;;;;;;;5041771;28;20096;-78
2023/06/22 09:57:12;;;;;;;10.52;5.55;;;;;;;;;;5039360;28;20045;-79
2023/06/22 09:59:39;;;;;;;12.48;5.63;;;;;;;;;;5037397;28;20101;-77
2023/06/22 10:02:05;;;;;;;6.82;5.18;;;;;;;;;;5038153;28;20060;-78
2023/06/22 10:04:31;;;;;;;10.05;5.22;;;;;;;;;;5036762;28;20025;-79
2023/06/22 10:06:56;;;;;;;9.32;5.55;;;;;;;;;;5034380;28;20021;-77
2023/06/22 10:09:22;;;;;;;9.25;5.78;;;;;;;;;;5034541;28;20032;-78
2023/06/22 10:11:48;;;;;;;8.10;5.43;;;;;;;;;;5032720;28;20139;-79
2023/06/22 10:14:13;;;;;;;10.88;6.30;;;;;;;;;;5033400;28;20037;-78
2023/06/22 10:16:40;;;;;;;8.02;5.20;;;;;;;;;;5036003;28;20080;-80
2023/06/22 10:19:06;;;;;;;8.73;4.90;;;;;;;;;;5037394;28;20054;-79
2023/06/22 10:21:32;;;;;;;10.65;5.53;;;;;;;;;;5034676;28;20033;-79
2023/06/22 10:23:59;;;;;;;6.85;4.35;;;;;;;;;;5032869;28;20029;-77
2023/06/22 10:26:24;;;;;;;16.83;5.63;;;;;;;;;;5034499;28;20029;-79
2023/06/22 10:28:50;;;;;;;12.02;5.32;;;;;;;;;;5034648;28;20032;-79
2023/06/22 10:31:16;;;;;;;8.00;5.80;;;;;;;;;;5015700;28;20104;-79
2023/06/22 10:33:43;;;;;;;8.63;5.32;;;;;;;;;;5035841;28;20033;-78
2023/06/22 10:36:10;;;;;;;7.30;4.80;;;;;;;;;;5035009;28;20219;-78
2023/06/22 10:38:36;;;;;;;8.85;4.90;;;;;;;;;;5034235;28;20057;-78
2023/06/22 10:41:02;;;;;;;7.90;5.38;;;;;;;;;;5031992;28;20069;-78
2023/06/22 10:43:27;;;;;;;9.48;5.47;;;;;;;;;;5033551;28;20025;-78
2023/06/22 10:45:53;;;;;;;8.80;5.30;;;;;;;;;;5034047;28;20030;-78
2023/06/22 10:48:18;;;;;;;7.60;5.28;;;;;;;;;;5034740;28;20378;-77
2023/06/22 10:50:44;;;;;;;7.05;4.78;;;;;;;;;;5034108;28;20128;-80
2023/06/22 10:53:09;;;;;;;6.95;5.20;;;;;;;;;;5034526;28;21757;-78
2023/06/22 10:55:35;;;;;;;9.00;5.13;;;;;;;;;;5029037;22;20073;-78
2023/06/22 10:58:00;;;;;;;6.43;4.70;;;;;;;;;;5033116;28;20025;-76
2023/06/22 11:00:26;;;;;;;9.77;5.03;;;;;;;;;;5015303;28;20029;-76
2023/06/22 11:02:52;;;;;;;9.27;5.05;;;;;;;;;;5032677;28;20033;-77
2023/06/22 11:05:17;;;;;;;7.60;5.25;;;;;;;;;;5033188;28;20035;-78
2023/06/22 11:07:44;;;;;;;6.78;4.85;;;;;;;;;;5015176;28;20029;-77
2023/06/22 11:10:09;;;;;;;5.70;4.45;;;;;;;;;;5033064;28;20033;-76
2023/06/22 11:12:35;;;;;;;7.85;5.05;;;;;;;;;;5031956;28;20036;-77
2023/06/22 11:15:01;;;;;;;7.95;5.30;;;;;;;;;;5014280;28;20037;-76
2023/06/22 11:17:27;;;;;;;13.32;5.15;;;;;;;;;;5015381;28;20140;-77
2023/06/22 11:19:52;;;;;;;8.98;5.22;;;;;;;;;;5032809;28;20026;-76
2023/06/22 11:22:18;;;;;;;7.72;5.32;;;;;;;;;;5032055;28;20033;-76
2023/06/22 11:24:43;;;;;;;9.18;4.90;;;;;;;;;;5014588;28;20033;-78
2023/06/22 11:27:09;;;;;;;8.18;5.25;;;;;;;;;;5014702;28;20033;-78
2023/06/22 11:29:35;;;;;;;11.27;5.50;;;;;;;;;;5014523;28;20025;-78
2023/06/22 11:32:01;;;;;;;6.72;5.68;;;;;;;;;;5031949;28;20491;-75
2023/06/22 11:34:27;;;;;;;7.30;5.35;;;;;;;;;;5014584;28;20111;-77
2023/06/22 11:36:53;;;;;;;6.30;5.05;;;;;;;;;;5032426;28;20033;-76
2023/06/22 11:39:18;;;;;;;7.60;5.50;;;;;;;;;;5032263;28;20040;-77
2023/06/22 11:41:44;;;;;;;6.97;5.53;;;;;;;;;;5031910;28;20512;-75
2023/06/22 11:44:09;;;;;;;11.05;5.30;;;;;;;;;;5032028;28;20460;-77
2023/06/22 11:46:35;;;;;;;9.27;4.53;;;;;;;;;;5014558;28;20128;-75
2023/06/22 11:49:01;;;;;;;8.52;4.93;;;;;;;;;;5032125;28;20049;-77
2023/06/22 11:51:27;;;;;;;7.80;5.50;;;;;;;;;;5014008;28;20409;-77
2023/06/22 11:53:53;;;;;;;6.85;4.93;;;;;;;;;;5014462;28;20037;-75
2023/06/22 11:56:18;;;;;;;7.13;4.90;;;;;;;;;;4998197;28;20044;-77
2023/06/22 11:58:44;;;;;;;8.55;4.55;;;;;;;;;;5014225;28;20029;-77
2023/06/22 12:01:09;;;;;;;8.23;4.65;;;;;;;;;;5013884;28;20128;-78
2023/06/22 12:03:35;;;;;;;6.32;4.82;;;;;;;;;;5031596;28;20590;-76
2023/06/22 12:06:01;;;;;;;7.60;4.97;;;;;;;;;;5014281;28;20021;-75
2023/06/22 12:08:26;;;;;;;8.48;5.18;;;;;;;;;;5013866;28;20025;-78
2023/06/22 12:10:53;;;;;;;7.70;5.30;;;;;;;;;;5031431;28;20388;-78
2023/06/22 12:13:19;;;;;;;7.50;5.00;;;;;;;;;;5013942;28;20108;-75
2023/06/22 12:15:44;;;;;;;7.13;5.07;;;;;;;;;;5031711;28;20112;-77
2023/06/22 12:18:10;;;;;;;7.20;5.35;;;;;;;;;;5013953;28;20029;-78
2023/06/22 12:20:36;;;;;;;9.18;4.90;;;;;;;;;;5030992;28;20037;-77
2023/06/22 12:23:01;;;;;;;7.70;4.53;;;;;;;;;;5013546;28;20476;-77
2023/06/22 12:25:27;;;;;;;8.43;4.70;;;;;;;;;;5031542;28;20469;-77
2023/06/22 12:27:53;;;;;;;7.97;5.05;;;;;;;;;;5013774;28;20060;-77
2023/06/22 12:30:19;;;;;;;11.85;5.18;;;;;;;;;;5031277;28;20025;-78
2023/06/22 12:32:44;;;;;;;9.02;4.70;;;;;;;;;;5031542;28;20036;-78
2023/06/22 12:35:13;;;;;;;10.13;5.32;;;;;;;;;;5031442;28;20037;-76
2023/06/22 12:37:42;;;;;;;7.97;4.60;;;;;;;;;;5031536;28;20057;-77
2023/06/22 12:40:08;;;;;;;8.98;4.57;;;;;;;;;;5031908;28;20029;-77
2023/06/22 12:42:34;;;;;;;7.20;5.03;;;;;;;;;;5030830;28;20029;-76
2023/06/22 12:44:59;;;;;;;7.63;5.07;;;;;;;;;;5014041;28;20104;-77
2023/06/22 12:47:25;;;;;;;10.60;4.95;;;;;;;;;;5031896;28;20033;-77
2023/06/22 12:49:50;;;;;;;8.77;5.18;;;;;;;;;;5031678;28;20025;-78
2023/06/22 12:52:16;;;;;;;9.15;5.05;;;;;;;;;;5031383;28;20022;-77
2023/06/22 12:54:41;;;;;;;6.45;4.95;;;;;;;;;;5034383;28;20033;-76
2023/06/22 12:57:07;;;;;;;9.85;5.05;;;;;;;;;;5035988;28;20113;-78
2023/06/22 12:59:32;;;;;;;6.45;5.07;;;;;;;;;;5018487;28;20159;-77
2023/06/22 13:01:58;;;;;;;8.55;5.53;;;;;;;;;;5017552;28;20059;-78
2023/06/22 13:04:23;;;;;;;9.48;5.53;;;;;;;;;;5035566;28;20029;-78
2023/06/22 13:06:49;;;;;;;6.60;4.88;;;;;;;;;;5017389;28;20022;-76
2023/06/22 13:09:15;;;;;;;7.68;5.20;;;;;;;;;;5035654;28;20040;-75
2023/06/22 13:11:41;;;;;;;8.57;5.30;;;;;;;;;;5035135;28;20131;-77
2023/06/22 13:14:07;;;;;;;8.00;5.22;;;;;;;;;;5035288;28;20030;-76
2023/06/22 13:16:33;;;;;;;9.52;5.25;;;;;;;;;;5017948;28;20056;-76
2023/06/22 13:18:58;;;;;;;9.68;5.57;;;;;;;;;;5035446;28;20404;-76
2023/06/22 13:21:24;;;;;;;6.40;5.05;;;;;;;;;;5017821;28;20029;-77
2023/06/22 13:23:49;;;;;;;10.48;5.30;;;;;;;;;;5017703;28;20500;-76
2023/06/22 13:26:15;;;;;;;6.40;4.43;;;;;;;;;;5018919;28;20030;-79
2023/06/22 13:28:41;;;;;;;7.82;5.18;;;;;;;;;;5019976;28;20041;-77
2023/06/22 13:31:06;;;;;;;8.07;5.70;;;;;;;;;;5017491;28;20025;-78
2023/06/22 13:33:32;;;;;;;12.45;4.97;;;;;;;;;;5035722;28;20423;-76
2023/06/22 13:35:57;;;;;;;12.43;4.90;;;;;;;;;;5018361;28;20400;-78
2023/06/22 13:38:23;;;;;;;8.05;5.85;;;;;;;;;;5018056;28;20589;-78
2023/06/22 13:40:48;;;;;;;9.80;5.20;;;;;;;;;;5017893;28;20128;-76
2023/06/22 13:43:15;;;;;;;7.35;5.40;;;;;;;;;;5036073;28;20030;-78
2023/06/22 13:45:41;;;;;;;6.93;5.33;;;;;;;;;;5018407;28;20029;-77
2023/06/22 13:48:07;;;;;;;9.63;5.72;;;;;;;;;;5001993;28;20044;-79
2023/06/22 13:50:32;;;;;;;8.75;5.20;;;;;;;;;;5035404;28;20385;-78
2023/06/22 13:52:58;;;;;;;7.28;5.13;;;;;;;;;;5035597;28;20056;-77
2023/06/22 13:55:23;;;;;;;8.77;5.18;;;;;;;;;;5034623;28;20084;-77
2023/06/22 13:57:49;;;;;;;7.38;5.78;;;;;;;;;;5033973;28;20033;-75
2023/06/22 14:00:15;;;;;;;7.28;4.90;;;;;;;;;;5034190;28;20092;-77
2023/06/22 14:02:41;;;;;;;6.72;5.25;;;;;;;;;;5016146;28;20032;-77
2023/06/22 14:05:07;;;;;;;8.82;5.13;;;;;;;;;;5014879;28;20436;-77
2023/06/22 14:07:33;;;;;;;8.52;4.93;;;;;;;;;;5000102;28;20619;-77
2023/06/22 14:09:59;;;;;;;7.68;5.53;;;;;;;;;;5016257;28;20077;-76
2023/06/22 14:12:28;;;;;;;6.40;5.03;;;;;;;;;;5033374;28;20459;-78
2023/06/22 14:14:53;;;;;;;8.00;4.90;;;;;;;;;;5016188;28;20040;-77
2023/06/22 14:17:23;;;;;;;9.13;5.82;;;;;;;;;;5033656;28;20120;-78
2023/06/22 14:19:49;;;;;;;8.55;5.07;;;;;;;;;;5033603;28;20116;-77
2023/06/22 14:22:15;;;;;;;6.95;5.35;;;;;;;;;;5033445;28;20061;-76
2023/06/22 14:24:40;;;;;;;6.80;5.18;;;;;;;;;;5015875;28;20527;-76